Time;durP1;ratioP1;P1;durP2;ratioP2;P2;SDS_P1;SDS_P2;PMS_P1;PMS_P2;Temp;Humidity;BMP_temperature;BMP_pressure;BME280_temperature;BME280_humidity;BME280_pressure;Samples;Min_cycle;Max_cycle;Signal;HPM_P1;HPM_P2
2022/08/19 00:00:16;;;;;;;8.52;5.85;;;;;;;;;;5093821;28;20029;-77
2022/08/19 00:02:42;;;;;;;9.18;5.95;;;;;;;;;;5093666;28;20024;-78
2022/08/19 00:05:09;;;;;;;12.20;5.82;;;;;;;;;;5093761;28;20016;-77
2022/08/19 00:07:36;;;;;;;7.47;6.05;;;;;;;;;;5093674;28;20020;-78
2022/08/19 00:10:02;;;;;;;7.07;6.03;;;;;;;;;;5093628;28;20020;-78
2022/08/19 00:12:28;;;;;;;7.38;5.70;;;;;;;;;;5093562;28;20029;-78
2022/08/19 00:14:54;;;;;;;7.50;5.78;;;;;;;;;;5075277;28;20020;-78
2022/08/19 00:17:20;;;;;;;8.35;6.30;;;;;;;;;;5093503;28;20377;-78
2022/08/19 00:19:47;;;;;;;8.82;6.70;;;;;;;;;;5093468;28;20107;-78
2022/08/19 00:22:13;;;;;;;8.70;6.57;;;;;;;;;;5093387;28;20028;-78
2022/08/19 00:24:40;;;;;;;12.40;6.53;;;;;;;;;;5093117;28;20044;-78
2022/08/19 00:27:06;;;;;;;7.63;6.07;;;;;;;;;;5093248;28;20051;-78
2022/08/19 00:29:32;;;;;;;9.45;6.22;;;;;;;;;;5093344;28;20039;-78
2022/08/19 00:31:59;;;;;;;9.13;7.00;;;;;;;;;;5093242;28;20043;-78
2022/08/19 00:34:26;;;;;;;9.63;6.65;;;;;;;;;;5093148;28;20012;-78
2022/08/19 00:36:52;;;;;;;11.50;6.80;;;;;;;;;;5092956;28;20056;-78
2022/08/19 00:39:18;;;;;;;10.13;6.28;;;;;;;;;;5093261;28;20077;-78
2022/08/19 00:41:48;;;;;;;8.57;6.88;;;;;;;;;;5092946;28;20055;-78
2022/08/19 00:44:14;;;;;;;10.05;6.72;;;;;;;;;;5092967;28;20024;-78
2022/08/19 00:46:42;;;;;;;15.82;6.80;;;;;;;;;;5093008;28;20772;-78
2022/08/19 00:49:32;;;;;;;12.00;7.10;;;;;;;;;;5092936;28;20056;-78
2022/08/19 00:52:15;;;;;;;10.95;7.80;;;;;;;;;;5082731;28;20115;-78
2022/08/19 00:54:42;;;;;;;15.23;7.65;;;;;;;;;;5093088;28;20031;-78
2022/08/19 00:57:09;;;;;;;8.70;7.18;;;;;;;;;;5105052;28;20071;-78
2022/08/19 00:59:37;;;;;;;10.55;7.78;;;;;;;;;;5112961;28;20019;-77
2022/08/19 01:02:04;;;;;;;10.32;6.88;;;;;;;;;;5095211;28;20507;-78
2022/08/19 01:04:30;;;;;;;12.10;7.30;;;;;;;;;;5112842;28;20413;-78
2022/08/19 01:06:56;;;;;;;10.52;7.30;;;;;;;;;;5112885;28;20024;-78
2022/08/19 01:09:22;;;;;;;10.77;6.93;;;;;;;;;;5112790;28;20041;-78
2022/08/19 01:11:49;;;;;;;11.73;7.75;;;;;;;;;;5113136;28;20322;-78
2022/08/19 01:14:16;;;;;;;10.75;6.88;;;;;;;;;;5113450;28;20034;-78
2022/08/19 01:16:43;;;;;;;8.68;6.57;;;;;;;;;;5112390;28;20043;-78
2022/08/19 01:19:13;;;;;;;11.70;7.15;;;;;;;;;;5094159;28;20443;-78
2022/08/19 01:21:42;;;;;;;11.18;6.85;;;;;;;;;;5112609;28;20053;-78
2022/08/19 01:24:08;;;;;;;11.65;8.45;;;;;;;;;;5104261;28;20493;-78
2022/08/19 01:26:39;;;;;;;11.50;7.68;;;;;;;;;;5092139;28;20109;-77
2022/08/19 01:29:07;;;;;;;8.82;7.68;;;;;;;;;;5092590;28;20047;-78
2022/08/19 01:31:33;;;;;;;10.07;6.93;;;;;;;;;;5092238;28;20047;-78
2022/08/19 01:34:01;;;;;;;10.00;6.68;;;;;;;;;;5092411;28;20027;-77
2022/08/19 01:36:31;;;;;;;11.98;7.07;;;;;;;;;;5090742;28;20027;-78
2022/08/19 01:38:58;;;;;;;8.70;7.15;;;;;;;;;;5092182;28;20461;-78
2022/08/19 01:41:24;;;;;;;8.55;6.70;;;;;;;;;;5092294;28;20020;-77
2022/08/19 01:43:51;;;;;;;9.27;6.72;;;;;;;;;;5092069;28;20470;-78
2022/08/19 01:46:18;;;;;;;15.15;7.85;;;;;;;;;;5092061;28;20059;-78
2022/08/19 01:48:44;;;;;;;8.55;7.18;;;;;;;;;;5092143;28;20024;-78
2022/08/19 01:51:11;;;;;;;9.02;6.47;;;;;;;;;;5092143;28;20028;-78
2022/08/19 01:53:37;;;;;;;12.68;7.45;;;;;;;;;;5095472;28;20102;-78
2022/08/19 01:56:03;;;;;;;10.65;6.85;;;;;;;;;;5098895;28;20046;-77
2022/08/19 01:58:32;;;;;;;9.00;7.10;;;;;;;;;;5116317;28;20024;-78
2022/08/19 02:00:58;;;;;;;9.82;7.32;;;;;;;;;;5116696;28;20061;-78
2022/08/19 02:03:24;;;;;;;8.32;7.05;;;;;;;;;;5116433;28;20028;-78
2022/08/19 02:05:54;;;;;;;12.15;7.80;;;;;;;;;;5097544;28;20026;-78
2022/08/19 02:08:20;;;;;;;12.23;7.85;;;;;;;;;;5085340;28;20028;-77
2022/08/19 02:10:47;;;;;;;12.63;8.82;;;;;;;;;;5075317;28;20386;-77
2022/08/19 02:13:14;;;;;;;10.85;8.02;;;;;;;;;;5075253;28;20296;-77
2022/08/19 02:15:40;;;;;;;12.35;7.55;;;;;;;;;;5075321;28;20138;-77
2022/08/19 02:18:07;;;;;;;12.23;7.90;;;;;;;;;;5075158;28;20043;-77
2022/08/19 02:20:33;;;;;;;9.30;8.07;;;;;;;;;;5075458;28;20030;-77
2022/08/19 02:23:01;;;;;;;10.10;7.90;;;;;;;;;;5075473;28;20016;-77
2022/08/19 02:25:27;;;;;;;10.57;8.20;;;;;;;;;;5075062;28;20082;-77
2022/08/19 02:27:53;;;;;;;10.52;8.63;;;;;;;;;;5075315;28;20093;-77
2022/08/19 02:30:20;;;;;;;12.88;8.10;;;;;;;;;;5075070;28;20092;-78
2022/08/19 02:32:46;;;;;;;11.95;9.20;;;;;;;;;;5074752;28;20047;-77
2022/08/19 02:35:15;;;;;;;11.73;8.13;;;;;;;;;;5075011;28;20024;-77
2022/08/19 02:40:27;;;;;;;12.25;8.65;;;;;;;;;;5075379;28;20120;-77
2022/08/19 02:42:53;;;;;;;10.48;8.60;;;;;;;;;;5075103;28;20086;-77
2022/08/19 02:45:20;;;;;;;13.05;8.73;;;;;;;;;;5074962;28;20024;-78
2022/08/19 02:47:46;;;;;;;11.07;8.30;;;;;;;;;;5077765;28;20111;-77
2022/08/19 02:50:13;;;;;;;13.32;8.40;;;;;;;;;;5115742;28;20027;-77
2022/08/19 02:52:39;;;;;;;11.30;8.40;;;;;;;;;;5115324;28;20028;-77
2022/08/19 02:55:05;;;;;;;14.57;9.00;;;;;;;;;;5097096;28;20390;-77
2022/08/19 02:57:32;;;;;;;12.60;8.18;;;;;;;;;;5115448;28;20497;-77
2022/08/19 02:59:58;;;;;;;12.40;8.10;;;;;;;;;;5115421;28;20019;-77
2022/08/19 03:02:24;;;;;;;11.20;7.97;;;;;;;;;;5115257;28;20161;-77
2022/08/19 03:04:50;;;;;;;14.07;8.63;;;;;;;;;;5114975;28;20024;-77
2022/08/19 03:07:17;;;;;;;12.35;8.82;;;;;;;;;;5115185;28;20024;-77
2022/08/19 03:09:43;;;;;;;14.07;9.35;;;;;;;;;;5115093;28;20020;-77
2022/08/19 03:12:10;;;;;;;16.58;10.07;;;;;;;;;;5115107;28;20430;-77
2022/08/19 03:14:36;;;;;;;16.33;10.40;;;;;;;;;;5115068;28;20024;-78
2022/08/19 03:17:03;;;;;;;18.63;10.18;;;;;;;;;;5114876;28;20023;-77
2022/08/19 03:19:29;;;;;;;14.63;9.85;;;;;;;;;;5114828;28;20470;-77
2022/08/19 03:21:55;;;;;;;12.73;9.13;;;;;;;;;;5114736;28;20035;-77
2022/08/19 03:24:21;;;;;;;14.68;8.45;;;;;;;;;;5094260;28;20028;-77
2022/08/19 03:26:48;;;;;;;12.52;8.90;;;;;;;;;;5074021;28;20174;-77
2022/08/19 03:29:15;;;;;;;11.77;8.77;;;;;;;;;;5073976;28;20032;-77
2022/08/19 03:31:43;;;;;;;11.98;8.10;;;;;;;;;;5073955;28;20021;-78
2022/08/19 03:34:11;;;;;;;14.02;9.40;;;;;;;;;;5073799;28;20475;-77
2022/08/19 03:36:37;;;;;;;18.92;10.48;;;;;;;;;;5073712;28;20028;-77
2022/08/19 03:39:04;;;;;;;13.38;9.63;;;;;;;;;;5073345;28;20020;-78
2022/08/19 03:41:32;;;;;;;15.25;10.90;;;;;;;;;;5073522;28;20426;-77
2022/08/19 03:43:59;;;;;;;14.25;9.95;;;;;;;;;;5073686;28;20459;-77
2022/08/19 03:46:29;;;;;;;12.93;8.85;;;;;;;;;;5073610;28;20054;-77
2022/08/19 03:48:56;;;;;;;18.30;9.45;;;;;;;;;;5073727;28;20024;-78
2022/08/19 03:51:34;;;;;;;16.52;10.77;;;;;;;;;;5073694;28;20114;-77
2022/08/19 03:54:01;;;;;;;16.25;10.52;;;;;;;;;;5073390;28;20024;-77
2022/08/19 03:56:28;;;;;;;18.25;10.63;;;;;;;;;;5079926;28;20101;-78
2022/08/19 03:58:56;;;;;;;17.17;11.63;;;;;;;;;;5093862;28;20020;-77
2022/08/19 04:01:23;;;;;;;17.75;11.38;;;;;;;;;;5093722;28;20026;-77
2022/08/19 04:03:49;;;;;;;16.27;11.00;;;;;;;;;;5075135;28;20039;-77
2022/08/19 04:06:26;;;;;;;15.90;10.05;;;;;;;;;;5093430;28;20460;-78
2022/08/19 04:08:53;;;;;;;15.82;10.70;;;;;;;;;;5106743;28;20096;-77
2022/08/19 04:11:21;;;;;;;19.65;10.15;;;;;;;;;;5113769;28;20015;-77
2022/08/19 04:13:47;;;;;;;24.52;10.13;;;;;;;;;;5113785;28;20023;-77
2022/08/19 04:16:13;;;;;;;21.98;11.23;;;;;;;;;;5113034;28;20116;-77
2022/08/19 04:18:40;;;;;;;14.95;10.68;;;;;;;;;;5113766;28;20038;-77
2022/08/19 04:21:06;;;;;;;17.33;11.35;;;;;;;;;;5113737;28;20033;-77
2022/08/19 04:23:32;;;;;;;19.27;11.20;;;;;;;;;;5113733;28;20024;-77
2022/08/19 04:25:58;;;;;;;20.08;11.95;;;;;;;;;;5113387;28;20030;-78
2022/08/19 04:28:25;;;;;;;16.95;10.63;;;;;;;;;;5095119;28;20034;-77
2022/08/19 04:30:54;;;;;;;23.08;13.00;;;;;;;;;;5113196;28;20035;-77
2022/08/19 04:33:22;;;;;;;20.30;12.10;;;;;;;;;;5095133;28;20019;-77
2022/08/19 04:35:49;;;;;;;26.80;12.70;;;;;;;;;;5113219;28;20034;-78
2022/08/19 04:38:16;;;;;;;17.45;10.90;;;;;;;;;;5113392;28;20031;-78
2022/08/19 04:43:30;;;;;;;18.42;11.68;;;;;;;;;;5113505;28;20035;-77
2022/08/19 04:45:56;;;;;;;15.68;11.35;;;;;;;;;;5113274;28;20404;-78
2022/08/19 04:48:28;;;;;;;18.38;11.73;;;;;;;;;;5113120;28;20019;-78
2022/08/19 04:50:57;;;;;;;18.23;11.18;;;;;;;;;;5113710;28;20048;-78
2022/08/19 04:53:33;;;;;;;22.58;12.35;;;;;;;;;;5113148;28;20051;-77
2022/08/19 04:56:01;;;;;;;19.98;12.80;;;;;;;;;;5112973;28;20051;-78
2022/08/19 04:58:28;;;;;;;16.77;11.77;;;;;;;;;;5094492;28;20026;-77
2022/08/19 05:00:54;;;;;;;17.63;10.88;;;;;;;;;;5112844;28;20055;-77
2022/08/19 05:03:21;;;;;;;19.23;13.20;;;;;;;;;;5113060;28;20023;-78
2022/08/19 05:05:48;;;;;;;21.33;12.45;;;;;;;;;;5094610;28;20474;-78
2022/08/19 05:08:19;;;;;;;19.00;11.55;;;;;;;;;;5112857;28;20099;-77
2022/08/19 05:10:45;;;;;;;21.75;11.70;;;;;;;;;;5112947;28;20374;-77
2022/08/19 05:13:11;;;;;;;19.70;12.20;;;;;;;;;;5113051;28;20026;-78
2022/08/19 05:15:37;;;;;;;20.10;11.45;;;;;;;;;;5112704;28;20028;-77
2022/08/19 05:23:33;;;;;;;18.02;12.32;;;;;;;;;;5110560;28;20031;-77
2022/08/19 05:26:02;;;;;;;20.98;12.73;;;;;;;;;;5105026;27;20473;-77
2022/08/19 05:28:28;;;;;;;15.15;10.68;;;;;;;;;;5112036;28;20020;-78
2022/08/19 05:30:55;;;;;;;15.05;10.65;;;;;;;;;;5111844;28;20023;-78
2022/08/19 05:33:21;;;;;;;18.42;12.23;;;;;;;;;;5112436;28;20015;-78
2022/08/19 05:35:49;;;;;;;14.43;10.50;;;;;;;;;;5112251;28;20041;-78
2022/08/19 05:38:15;;;;;;;18.83;13.25;;;;;;;;;;5112260;28;20058;-78
2022/08/19 05:40:41;;;;;;;25.83;13.65;;;;;;;;;;5112572;28;20031;-78
2022/08/19 05:43:08;;;;;;;20.58;12.50;;;;;;;;;;5112149;28;20027;-78
2022/08/19 05:45:38;;;;;;;19.40;12.18;;;;;;;;;;5112475;28;20043;-78
2022/08/19 05:48:04;;;;;;;24.33;13.65;;;;;;;;;;5112276;28;20024;-78
2022/08/19 05:50:30;;;;;;;23.45;13.98;;;;;;;;;;5112680;28;20430;-78
2022/08/19 05:52:57;;;;;;;20.05;13.57;;;;;;;;;;5111987;28;20160;-78
2022/08/19 05:55:23;;;;;;;22.30;14.43;;;;;;;;;;5111878;28;20077;-78
2022/08/19 05:57:49;;;;;;;26.90;17.55;;;;;;;;;;5106037;28;20044;-79
2022/08/19 06:00:16;;;;;;;30.33;17.27;;;;;;;;;;5095748;28;20466;-80
2022/08/19 06:02:42;;;;;;;27.80;17.77;;;;;;;;;;5115073;28;20038;-79
2022/08/19 06:05:09;;;;;;;28.88;18.17;;;;;;;;;;5086510;28;20455;-79
2022/08/19 06:07:38;;;;;;;25.25;16.00;;;;;;;;;;5102300;28;20030;-79
2022/08/19 06:10:05;;;;;;;33.88;18.88;;;;;;;;;;5100508;28;20020;-80
2022/08/19 06:12:33;;;;;;;35.45;20.02;;;;;;;;;;5112427;28;20019;-80
2022/08/19 06:15:01;;;;;;;41.78;21.48;;;;;;;;;;5098302;28;20464;-79
2022/08/19 06:17:27;;;;;;;38.35;19.75;;;;;;;;;;5112504;28;20484;-80
2022/08/19 06:19:53;;;;;;;35.05;19.20;;;;;;;;;;5105654;28;20462;-80
2022/08/19 06:22:19;;;;;;;34.17;19.67;;;;;;;;;;5114461;28;20043;-80
2022/08/19 06:24:45;;;;;;;52.97;24.20;;;;;;;;;;5127855;28;20022;-80
2022/08/19 06:27:11;;;;;;;47.53;23.42;;;;;;;;;;5112252;28;20101;-80
2022/08/19 06:29:37;;;;;;;51.83;25.27;;;;;;;;;;5110976;28;20411;-80
2022/08/19 06:32:04;;;;;;;65.65;28.92;;;;;;;;;;5112597;28;20046;-80
2022/08/19 06:34:31;;;;;;;66.93;30.98;;;;;;;;;;5112043;28;20073;-80
2022/08/19 06:37:00;;;;;;;67.95;30.73;;;;;;;;;;5112379;28;20027;-80
2022/08/19 06:39:28;;;;;;;76.43;32.10;;;;;;;;;;5136425;27;20096;-80
2022/08/19 06:41:56;;;;;;;75.88;31.88;;;;;;;;;;5136498;27;20026;-80
2022/08/19 06:44:25;;;;;;;83.03;34.47;;;;;;;;;;5136917;27;20030;-80
2022/08/19 06:46:51;;;;;;;78.03;34.65;;;;;;;;;;5117970;27;20038;-80
2022/08/19 06:49:17;;;;;;;81.35;35.10;;;;;;;;;;5097538;28;20032;-80
2022/08/19 06:51:47;;;;;;;77.97;34.45;;;;;;;;;;5104333;28;20024;-79
2022/08/19 06:54:13;;;;;;;86.68;35.47;;;;;;;;;;5115902;28;20027;-79
2022/08/19 06:56:39;;;;;;;85.03;35.42;;;;;;;;;;5115528;28;20043;-79
2022/08/19 06:59:07;;;;;;;102.78;37.97;;;;;;;;;;5114406;28;20016;-80
2022/08/19 07:01:37;;;;;;;91.47;38.05;;;;;;;;;;5115986;28;20068;-80
2022/08/19 07:04:03;;;;;;;89.30;39.35;;;;;;;;;;5115774;28;20499;-78
2022/08/19 07:06:30;;;;;;;92.22;39.88;;;;;;;;;;5114892;28;20029;-79
2022/08/19 07:08:58;;;;;;;90.18;39.72;;;;;;;;;;5115976;27;20142;-79
2022/08/19 07:11:24;;;;;;;93.65;42.00;;;;;;;;;;5117121;27;20103;-78
2022/08/19 07:13:50;;;;;;;88.70;40.42;;;;;;;;;;5136143;27;20163;-78
2022/08/19 07:16:19;;;;;;;97.43;42.92;;;;;;;;;;5136041;27;20502;-78
2022/08/19 07:18:45;;;;;;;94.07;42.88;;;;;;;;;;5126693;27;20107;-79
2022/08/19 07:21:16;;;;;;;87.57;41.42;;;;;;;;;;5114812;28;20149;-78
2022/08/19 07:23:42;;;;;;;88.07;42.80;;;;;;;;;;5115487;28;20062;-78
2022/08/19 07:26:19;;;;;;;86.97;42.78;;;;;;;;;;5115219;28;20034;-79
2022/08/19 07:28:45;;;;;;;92.35;43.97;;;;;;;;;;5115379;28;20016;-79
2022/08/19 07:31:12;;;;;;;91.45;43.05;;;;;;;;;;5115060;28;20026;-79
2022/08/19 07:33:38;;;;;;;97.30;41.92;;;;;;;;;;5115122;28;20019;-79
2022/08/19 07:36:06;;;;;;;90.10;40.25;;;;;;;;;;5114938;28;20032;-79
2022/08/19 07:38:33;;;;;;;99.90;43.53;;;;;;;;;;5114592;28;20380;-79
2022/08/19 07:40:59;;;;;;;96.97;45.08;;;;;;;;;;5114128;27;21413;-79
2022/08/19 07:43:26;;;;;;;98.50;43.80;;;;;;;;;;5115141;28;20039;-79
2022/08/19 07:45:55;;;;;;;91.55;41.17;;;;;;;;;;5114137;28;20031;-79
2022/08/19 07:48:24;;;;;;;92.63;43.92;;;;;;;;;;5114915;28;20020;-79
2022/08/19 07:50:50;;;;;;;90.63;41.92;;;;;;;;;;5095417;28;20050;-79
2022/08/19 07:53:16;;;;;;;92.22;41.42;;;;;;;;;;5114687;28;20031;-79
2022/08/19 07:55:43;;;;;;;87.47;41.70;;;;;;;;;;5096308;28;20028;-81
2022/08/19 07:58:09;;;;;;;79.72;40.88;;;;;;;;;;5096121;28;20027;-80
2022/08/19 08:00:35;;;;;;;82.00;40.33;;;;;;;;;;5096046;28;20471;-79
2022/08/19 08:03:01;;;;;;;85.32;40.85;;;;;;;;;;5096045;28;20069;-80
2022/08/19 08:10:57;;;;;;;76.55;38.03;;;;;;;;;;5110116;28;20043;-79
2022/08/19 08:13:23;;;;;;;71.95;36.95;;;;;;;;;;5114316;27;20027;-80
2022/08/19 08:15:49;;;;;;;77.57;37.22;;;;;;;;;;5114329;28;20481;-80
2022/08/19 08:18:15;;;;;;;70.47;37.22;;;;;;;;;;5113845;28;20031;-80
2022/08/19 08:20:42;;;;;;;72.47;38.10;;;;;;;;;;5114428;28;20027;-80
2022/08/19 08:23:24;;;;;;;75.57;35.78;;;;;;;;;;5095659;28;20019;-80
2022/08/19 08:25:51;;;;;;;68.60;36.25;;;;;;;;;;5114503;28;20023;-79
2022/08/19 08:28:17;;;;;;;73.10;37.13;;;;;;;;;;5114153;28;20407;-78
2022/08/19 08:30:45;;;;;;;66.35;34.63;;;;;;;;;;5114403;28;20484;-79
2022/08/19 08:33:11;;;;;;;65.85;34.47;;;;;;;;;;5114114;28;20022;-79
2022/08/19 08:35:38;;;;;;;63.92;32.42;;;;;;;;;;5114181;28;20024;-79
2022/08/19 08:38:04;;;;;;;59.80;31.05;;;;;;;;;;5095732;28;20019;-79
2022/08/19 08:40:51;;;;;;;58.08;30.65;;;;;;;;;;5113713;28;20017;-79
2022/08/19 08:43:25;;;;;;;57.35;31.27;;;;;;;;;;5113763;28;20012;-80
2022/08/19 08:45:53;;;;;;;53.25;27.70;;;;;;;;;;5113463;28;20048;-81
2022/08/19 08:48:40;;;;;;;56.90;28.98;;;;;;;;;;5113681;28;20059;-79
2022/08/19 08:51:11;;;;;;;56.22;29.88;;;;;;;;;;5113326;28;20118;-79
2022/08/19 08:53:38;;;;;;;52.08;27.98;;;;;;;;;;5112212;28;20039;-78
2022/08/19 08:56:05;;;;;;;47.17;27.15;;;;;;;;;;5112223;28;20059;-76
2022/08/19 08:58:51;;;;;;;54.95;28.75;;;;;;;;;;5112063;28;20020;-76
2022/08/19 09:01:18;;;;;;;51.50;25.88;;;;;;;;;;5104873;28;20122;-76
2022/08/19 09:03:45;;;;;;;48.35;26.20;;;;;;;;;;5111875;28;20327;-76
2022/08/19 09:06:29;;;;;;;43.72;26.35;;;;;;;;;;5112461;28;20030;-76
2022/08/19 09:09:03;;;;;;;50.25;26.45;;;;;;;;;;5112896;28;20378;-76
2022/08/19 09:11:45;;;;;;;49.78;26.35;;;;;;;;;;5112308;28;20027;-76
2022/08/19 09:14:17;;;;;;;50.00;27.70;;;;;;;;;;5112721;28;20024;-77
2022/08/19 09:16:43;;;;;;;46.03;26.48;;;;;;;;;;5112760;28;20027;-76
2022/08/19 09:19:10;;;;;;;43.30;26.10;;;;;;;;;;5113292;28;20470;-76
2022/08/19 09:21:36;;;;;;;47.55;27.15;;;;;;;;;;5112826;28;20030;-76
2022/08/19 09:24:04;;;;;;;45.33;25.98;;;;;;;;;;5112838;28;20024;-76
2022/08/19 09:26:32;;;;;;;42.13;24.92;;;;;;;;;;5094345;28;20435;-76
2022/08/19 09:28:59;;;;;;;48.17;24.23;;;;;;;;;;5112618;28;20020;-76
2022/08/19 09:31:26;;;;;;;38.72;22.23;;;;;;;;;;5112763;28;20121;-76
2022/08/19 09:33:56;;;;;;;37.03;21.48;;;;;;;;;;5112471;28;20034;-76
2022/08/19 09:36:23;;;;;;;37.83;22.08;;;;;;;;;;5112456;28;20023;-76
2022/08/19 09:38:49;;;;;;;41.17;22.42;;;;;;;;;;5112747;28;20858;-77
2022/08/19 09:41:17;;;;;;;41.00;22.65;;;;;;;;;;5094295;28;20046;-76
2022/08/19 09:43:45;;;;;;;36.53;20.85;;;;;;;;;;5094199;28;20024;-76
2022/08/19 09:46:11;;;;;;;36.30;21.85;;;;;;;;;;5112349;28;20043;-76
2022/08/19 09:48:38;;;;;;;37.60;22.50;;;;;;;;;;5112180;28;20024;-76
2022/08/19 09:51:08;;;;;;;38.83;21.30;;;;;;;;;;5112004;28;20028;-77
2022/08/19 09:53:37;;;;;;;36.95;19.35;;;;;;;;;;5112470;28;20073;-76
2022/08/19 09:56:04;;;;;;;32.80;18.98;;;;;;;;;;5094527;28;20093;-75
2022/08/19 09:58:30;;;;;;;35.45;19.30;;;;;;;;;;5112793;28;20033;-77
2022/08/19 10:00:58;;;;;;;35.53;22.02;;;;;;;;;;5112488;28;20088;-75
2022/08/19 10:03:24;;;;;;;38.58;21.35;;;;;;;;;;5112609;28;20045;-76
2022/08/19 10:05:50;;;;;;;32.85;20.80;;;;;;;;;;5109456;28;20102;-76
2022/08/19 10:08:18;;;;;;;39.20;20.92;;;;;;;;;;5100159;28;20605;-77
2022/08/19 10:10:44;;;;;;;35.33;19.33;;;;;;;;;;5112556;28;20020;-76
2022/08/19 10:13:11;;;;;;;32.00;19.02;;;;;;;;;;5124513;27;20359;-76
2022/08/19 10:15:40;;;;;;;30.90;18.73;;;;;;;;;;5117166;28;20034;-76
2022/08/19 10:18:07;;;;;;;31.52;18.63;;;;;;;;;;5116795;28;20122;-77
2022/08/19 10:20:35;;;;;;;35.15;18.77;;;;;;;;;;5132492;27;20019;-76
2022/08/19 10:23:01;;;;;;;26.90;16.38;;;;;;;;;;5104000;27;20823;-76
2022/08/19 10:25:27;;;;;;;32.72;18.05;;;;;;;;;;5131479;27;20023;-77
2022/08/19 10:27:54;;;;;;;28.92;16.48;;;;;;;;;;5135078;27;20104;-76
2022/08/19 10:30:21;;;;;;;23.75;16.35;;;;;;;;;;5119124;27;20019;-75
2022/08/19 10:32:47;;;;;;;28.08;16.85;;;;;;;;;;5098341;28;20085;-77
2022/08/19 10:35:14;;;;;;;27.88;17.13;;;;;;;;;;5116630;28;20023;-77
2022/08/19 10:37:40;;;;;;;27.65;17.35;;;;;;;;;;5116953;28;20024;-79
2022/08/19 10:40:08;;;;;;;31.27;18.13;;;;;;;;;;5098631;28;20031;-77
2022/08/19 10:42:35;;;;;;;23.85;13.82;;;;;;;;;;5116683;28;20023;-76
2022/08/19 10:45:01;;;;;;;29.67;15.80;;;;;;;;;;5116579;28;20020;-77
2022/08/19 10:47:27;;;;;;;28.10;16.67;;;;;;;;;;5116141;28;20027;-76
2022/08/19 10:52:49;;;;;;;29.52;16.00;;;;;;;;;;5116985;28;20115;-77
2022/08/19 10:58:00;;;;;;;20.65;13.93;;;;;;;;;;5115922;28;20130;-78
2022/08/19 11:00:27;;;;;;;22.38;14.60;;;;;;;;;;5126005;27;20407;-77
2022/08/19 11:02:53;;;;;;;28.58;17.25;;;;;;;;;;5127788;27;20020;-77
2022/08/19 11:05:21;;;;;;;28.33;15.90;;;;;;;;;;5130735;27;20477;-77
2022/08/19 11:07:50;;;;;;;28.58;17.02;;;;;;;;;;5114509;27;20082;-78
2022/08/19 11:10:18;;;;;;;29.80;16.38;;;;;;;;;;5095594;28;20474;-81
2022/08/19 11:12:46;;;;;;;23.02;16.05;;;;;;;;;;5095425;28;20027;-79
2022/08/19 11:15:12;;;;;;;24.92;15.68;;;;;;;;;;5095610;28;20016;-86
2022/08/19 11:17:43;;;;;;;22.67;14.90;;;;;;;;;;5103640;28;20027;-82
2022/08/19 11:20:10;;;;;;;29.02;15.38;;;;;;;;;;5115864;28;20020;-81
2022/08/19 11:22:37;;;;;;;24.88;16.45;;;;;;;;;;5097369;28;20396;-83
2022/08/19 11:25:03;;;;;;;24.05;15.65;;;;;;;;;;5098887;27;20153;-83
2022/08/19 11:27:29;;;;;;;32.35;19.00;;;;;;;;;;5099694;28;20019;-83
2022/08/19 11:29:56;;;;;;;29.15;16.10;;;;;;;;;;5099453;28;20069;-82
2022/08/19 11:32:22;;;;;;;27.85;19.05;;;;;;;;;;5116991;27;20015;-83
2022/08/19 11:34:48;;;;;;;31.58;18.77;;;;;;;;;;5118783;27;20026;-83
2022/08/19 11:37:15;;;;;;;33.40;19.25;;;;;;;;;;5118538;27;20102;-82
2022/08/19 11:39:41;;;;;;;30.98;19.63;;;;;;;;;;5099913;28;20030;-81
2022/08/19 11:44:52;;;;;;;27.90;18.52;;;;;;;;;;5116925;28;20050;-83
2022/08/19 11:47:18;;;;;;;30.45;20.40;;;;;;;;;;5096984;28;20069;-82
2022/08/19 11:49:46;;;;;;;32.53;21.00;;;;;;;;;;5115592;28;20509;-81
2022/08/19 11:52:12;;;;;;;29.60;20.38;;;;;;;;;;5096711;28;20061;-82
2022/08/19 11:54:38;;;;;;;26.40;19.33;;;;;;;;;;5096868;28;20043;-81
2022/08/19 11:57:04;;;;;;;30.02;19.63;;;;;;;;;;5114935;28;20043;-82
2022/08/19 11:59:30;;;;;;;32.78;21.75;;;;;;;;;;5096639;28;20461;-82
2022/08/19 12:01:57;;;;;;;28.88;18.83;;;;;;;;;;5114925;28;20119;-81
2022/08/19 12:04:23;;;;;;;29.88;19.58;;;;;;;;;;5114730;28;20423;-82
2022/08/19 12:06:49;;;;;;;26.63;18.88;;;;;;;;;;5096155;28;20425;-82
2022/08/19 12:09:17;;;;;;;32.63;19.55;;;;;;;;;;5096557;28;20016;-82
2022/08/19 12:11:43;;;;;;;34.05;21.52;;;;;;;;;;5114639;28;20106;-82
2022/08/19 12:14:11;;;;;;;31.90;20.20;;;;;;;;;;5096491;28;20036;-82
2022/08/19 12:16:37;;;;;;;37.97;21.30;;;;;;;;;;5096608;28;20028;-82
2022/08/19 12:19:04;;;;;;;29.52;19.65;;;;;;;;;;5096636;28;20042;-83
2022/08/19 12:21:31;;;;;;;30.23;19.55;;;;;;;;;;5114614;28;20028;-83
2022/08/19 12:23:58;;;;;;;29.60;18.63;;;;;;;;;;5095643;28;20027;-83
2022/08/19 12:26:25;;;;;;;38.53;22.33;;;;;;;;;;5095396;28;20119;-83
2022/08/19 12:28:51;;;;;;;30.95;20.35;;;;;;;;;;5114506;28;20015;-83
2022/08/19 12:31:19;;;;;;;30.55;19.73;;;;;;;;;;5114447;28;20458;-83
2022/08/19 12:33:45;;;;;;;29.45;19.10;;;;;;;;;;5096606;28;20019;-83
2022/08/19 12:36:12;;;;;;;32.35;22.00;;;;;;;;;;5113792;28;20027;-83
2022/08/19 12:38:39;;;;;;;27.52;17.77;;;;;;;;;;5114595;28;20367;-83
2022/08/19 12:41:06;;;;;;;34.10;19.60;;;;;;;;;;5114449;28;20031;-80
2022/08/19 12:43:34;;;;;;;25.83;17.92;;;;;;;;;;5114397;28;20032;-80
2022/08/19 12:46:04;;;;;;;31.23;20.60;;;;;;;;;;5131471;27;20033;-79
2022/08/19 12:48:30;;;;;;;37.28;20.85;;;;;;;;;;5114981;28;20024;-79
2022/08/19 12:50:56;;;;;;;28.33;18.48;;;;;;;;;;5114378;28;20039;-79
2022/08/19 12:53:22;;;;;;;28.98;17.35;;;;;;;;;;5115143;27;20447;-76
2022/08/19 12:55:55;;;;;;;29.30;16.23;;;;;;;;;;5113980;28;20465;-78
2022/08/19 12:58:21;;;;;;;27.63;18.27;;;;;;;;;;5114104;28;20031;-78
2022/08/19 13:00:48;;;;;;;29.50;18.73;;;;;;;;;;5113884;28;20019;-78
2022/08/19 13:03:15;;;;;;;35.92;20.17;;;;;;;;;;5113899;28;20028;-77
2022/08/19 13:05:41;;;;;;;30.23;18.05;;;;;;;;;;5130214;27;20374;-75
2022/08/19 13:08:08;;;;;;;27.27;17.92;;;;;;;;;;5103972;27;20078;-82
2022/08/19 13:10:35;;;;;;;26.88;16.55;;;;;;;;;;5094289;28;20020;-81
2022/08/19 13:13:06;;;;;;;30.67;18.92;;;;;;;;;;5093717;28;20020;-81
2022/08/19 13:15:34;;;;;;;30.23;19.23;;;;;;;;;;5093810;28;20024;-83
2022/08/19 13:18:00;;;;;;;26.27;17.83;;;;;;;;;;5094048;28;20028;-81
2022/08/19 13:20:27;;;;;;;31.23;19.23;;;;;;;;;;5088949;28;20034;-81
2022/08/19 13:22:54;;;;;;;34.97;18.67;;;;;;;;;;5103340;28;20118;-82
2022/08/19 13:25:20;;;;;;;29.40;18.05;;;;;;;;;;5121583;27;20511;-82
2022/08/19 13:27:48;;;;;;;23.42;17.67;;;;;;;;;;5115566;27;20027;-81
2022/08/19 13:33:12;;;;;;;24.38;17.15;;;;;;;;;;5134565;27;20069;-80
2022/08/19 13:35:39;;;;;;;29.85;19.23;;;;;;;;;;5115463;27;20047;-83
2022/08/19 13:38:05;;;;;;;20.83;15.85;;;;;;;;;;5112602;28;20020;-81
2022/08/19 13:40:33;;;;;;;24.35;16.85;;;;;;;;;;5134426;28;20068;-81
2022/08/19 13:43:00;;;;;;;24.02;14.80;;;;;;;;;;5134180;28;20487;-81
2022/08/19 13:45:27;;;;;;;24.77;15.80;;;;;;;;;;5134717;28;20031;-81
2022/08/19 13:47:54;;;;;;;24.98;14.93;;;;;;;;;;5110239;27;20466;-82
2022/08/19 13:50:24;;;;;;;22.85;12.75;;;;;;;;;;5139023;27;20054;-83
2022/08/19 13:52:50;;;;;;;28.10;17.20;;;;;;;;;;5138288;27;20446;-82
2022/08/19 13:55:16;;;;;;;26.92;16.38;;;;;;;;;;5128439;27;20099;-81
2022/08/19 13:57:42;;;;;;;26.17;16.70;;;;;;;;;;5098460;28;20440;-80
2022/08/19 14:00:10;;;;;;;27.35;16.85;;;;;;;;;;5117274;28;20432;-82
2022/08/19 14:02:37;;;;;;;21.65;15.18;;;;;;;;;;5117511;28;20082;-86
2022/08/19 14:05:04;;;;;;;17.15;11.88;;;;;;;;;;5098740;28;20024;-81
2022/08/19 14:07:30;;;;;;;20.83;12.23;;;;;;;;;;5117194;28;20024;-82
2022/08/19 14:09:56;;;;;;;23.85;13.68;;;;;;;;;;5099339;28;20084;-82
2022/08/19 14:12:23;;;;;;;18.60;12.35;;;;;;;;;;5098957;28;20015;-78
2022/08/19 14:14:49;;;;;;;18.80;12.93;;;;;;;;;;5116968;28;20020;-77
2022/08/19 14:17:15;;;;;;;20.20;12.98;;;;;;;;;;5117191;28;20024;-78
2022/08/19 14:19:42;;;;;;;23.83;13.38;;;;;;;;;;5116909;28;20462;-78
2022/08/19 14:22:08;;;;;;;19.80;15.43;;;;;;;;;;5098478;28;20024;-78
2022/08/19 14:24:34;;;;;;;25.23;17.05;;;;;;;;;;5116429;28;20525;-78
2022/08/19 14:27:00;;;;;;;27.35;16.88;;;;;;;;;;5116249;28;20485;-78
2022/08/19 14:29:28;;;;;;;21.00;13.73;;;;;;;;;;5116480;28;20097;-78
2022/08/19 14:31:56;;;;;;;19.02;11.85;;;;;;;;;;5116306;28;20107;-78
2022/08/19 14:34:22;;;;;;;13.23;9.57;;;;;;;;;;5116618;28;20020;-77
2022/08/19 14:36:48;;;;;;;14.65;8.93;;;;;;;;;;5116400;28;20391;-77
2022/08/19 14:39:14;;;;;;;12.30;7.07;;;;;;;;;;5098075;28;20401;-77
2022/08/19 14:41:41;;;;;;;11.00;7.22;;;;;;;;;;5116299;28;20099;-77
2022/08/19 14:44:09;;;;;;;13.63;7.18;;;;;;;;;;5115307;28;20054;-76
2022/08/19 14:46:36;;;;;;;11.63;7.93;;;;;;;;;;5118490;27;20022;-76
2022/08/19 14:49:02;;;;;;;12.32;8.68;;;;;;;;;;5123546;27;20115;-76